sensor_id;sensor_type;location;lat;lon;timestamp;P1;durP1;ratioP1;P2;durP2;ratioP2
62457;SDS011;48509;52.122;5.250;2023-11-19T00:01:07;23.1;;;5.11;;
62457;SDS011;48509;52.122;5.250;2023-11-19T00:04:19;16.8;;;5.0;;
62457;SDS011;48509;52.122;5.250;2023-11-19T00:05:55;23.5;;;5.4;;
62457;SDS011;48509;52.122;5.250;2023-11-19T00:07:31;21.1;;;5.11;;
62457;SDS011;48509;52.122;5.250;2023-11-19T00:10:44;17.2;;;4.7;;
62457;SDS011;48509;52.122;5.250;2023-11-19T00:12:20;18.41;;;4.8;;
62457;SDS011;48509;52.122;5.250;2023-11-19T00:13:56;22.6;;;5.2;;
62457;SDS011;48509;52.122;5.250;2023-11-19T00:15:32;18.3;;;4.8;;
62457;SDS011;48509;52.122;5.250;2023-11-19T00:18:44;18.5;;;4.91;;
62457;SDS011;48509;52.122;5.250;2023-11-19T00:20:20;20.9;;;5.0;;
62457;SDS011;48509;52.122;5.250;2023-11-19T00:21:56;16.2;;;4.8;;
62457;SDS011;48509;52.122;5.250;2023-11-19T00:25:09;25.7;;;5.6;;
62457;SDS011;48509;52.122;5.250;2023-11-19T00:26:46;20.0;;;4.91;;
62457;SDS011;48509;52.122;5.250;2023-11-19T00:28:22;21.0;;;4.8;;
62457;SDS011;48509;52.122;5.250;2023-11-19T00:31:36;23.5;;;5.0;;
62457;SDS011;48509;52.122;5.250;2023-11-19T00:33:12;22.3;;;5.11;;
62457;SDS011;48509;52.122;5.250;2023-11-19T00:34:48;30.2;;;5.5;;
62457;SDS011;48509;52.122;5.250;2023-11-19T00:36:24;25.6;;;5.6;;
62457;SDS011;48509;52.122;5.250;2023-11-19T00:39:37;19.0;;;5.2;;
62457;SDS011;48509;52.122;5.250;2023-11-19T00:41:13;24.9;;;5.2;;
62457;SDS011;48509;52.122;5.250;2023-11-19T00:42:51;25.7;;;5.9;;
62457;SDS011;48509;52.122;5.250;2023-11-19T00:46:06;29.4;;;5.3;;
62457;SDS011;48509;52.122;5.250;2023-11-19T00:47:43;19.3;;;5.0;;
62457;SDS011;48509;52.122;5.250;2023-11-19T00:49:19;33.1;;;5.9;;
62457;SDS011;48509;52.122;5.250;2023-11-19T00:52:31;28.3;;;6.0;;
62457;SDS011;48509;52.122;5.250;2023-11-19T00:54:07;24.8;;;5.5;;
62457;SDS011;48509;52.122;5.250;2023-11-19T00:55:44;29.4;;;5.5;;
62457;SDS011;48509;52.122;5.250;2023-11-19T00:57:21;28.9;;;5.5;;
62457;SDS011;48509;52.122;5.250;2023-11-19T01:00:33;30.5;;;6.2;;
62457;SDS011;48509;52.122;5.250;2023-11-19T01:02:09;30.3;;;6.3;;
62457;SDS011;48509;52.122;5.250;2023-11-19T01:03:45;31.7;;;6.2;;
62457;SDS011;48509;52.122;5.250;2023-11-19T01:06:57;28.8;;;6.2;;
62457;SDS011;48509;52.122;5.250;2023-11-19T01:08:33;35.81;;;6.5;;
62457;SDS011;48509;52.122;5.250;2023-11-19T01:10:09;38.4;;;6.3;;
62457;SDS011;48509;52.122;5.250;2023-11-19T01:13:22;35.31;;;6.1;;
62457;SDS011;48509;52.122;5.250;2023-11-19T01:14:58;31.9;;;5.8;;
62457;SDS011;48509;52.122;5.250;2023-11-19T01:19:47;31.4;;;6.3;;
62457;SDS011;48509;52.122;5.250;2023-11-19T01:21:23;37.9;;;6.9;;
62457;SDS011;48509;52.122;5.250;2023-11-19T01:23:00;34.71;;;6.9;;
62457;SDS011;48509;52.122;5.250;2023-11-19T01:24:36;34.81;;;6.8;;
62457;SDS011;48509;52.122;5.250;2023-11-19T01:27:49;30.5;;;6.6;;
62457;SDS011;48509;52.122;5.250;2023-11-19T01:29:25;33.8;;;6.8;;
62457;SDS011;48509;52.122;5.250;2023-11-19T01:31:01;39.81;;;6.7;;
62457;SDS011;48509;52.122;5.250;2023-11-19T01:34:13;30.9;;;6.4;;
62457;SDS011;48509;52.122;5.250;2023-11-19T01:35:49;31.0;;;6.7;;
62457;SDS011;48509;52.122;5.250;2023-11-19T01:37:26;38.5;;;6.9;;
62457;SDS011;48509;52.122;5.250;2023-11-19T01:40:38;42.0;;;7.6;;
62457;SDS011;48509;52.122;5.250;2023-11-19T01:42:14;38.5;;;7.4;;
62457;SDS011;48509;52.122;5.250;2023-11-19T01:43:51;52.3;;;7.9;;
62457;SDS011;48509;52.122;5.250;2023-11-19T01:45:28;45.9;;;8.2;;
62457;SDS011;48509;52.122;5.250;2023-11-19T01:48:44;38.5;;;7.4;;
62457;SDS011;48509;52.122;5.250;2023-11-19T01:50:22;38.81;;;7.9;;
62457;SDS011;48509;52.122;5.250;2023-11-19T01:52:00;38.81;;;7.9;;
62457;SDS011;48509;52.122;5.250;2023-11-19T01:55:14;38.4;;;7.8;;
62457;SDS011;48509;52.122;5.250;2023-11-19T01:56:52;39.4;;;7.4;;
62457;SDS011;48509;52.122;5.250;2023-11-19T01:58:30;33.5;;;7.0;;
62457;SDS011;48509;52.122;5.250;2023-11-19T02:00:07;45.4;;;7.9;;
62457;SDS011;48509;52.122;5.250;2023-11-19T02:03:22;43.9;;;8.5;;
62457;SDS011;48509;52.122;5.250;2023-11-19T02:05:00;35.31;;;7.4;;
62457;SDS011;48509;52.122;5.250;2023-11-19T02:06:37;35.31;;;7.4;;
62457;SDS011;48509;52.122;5.250;2023-11-19T02:09:51;36.0;;;7.3;;
62457;SDS011;48509;52.122;5.250;2023-11-19T02:11:28;46.4;;;8.2;;
62457;SDS011;48509;52.122;5.250;2023-11-19T02:13:05;50.5;;;8.4;;
62457;SDS011;48509;52.122;5.250;2023-11-19T02:14:41;43.2;;;8.31;;
62457;SDS011;48509;52.122;5.250;2023-11-19T02:17:53;43.6;;;7.4;;
62457;SDS011;48509;52.122;5.250;2023-11-19T02:19:29;39.4;;;8.2;;
62457;SDS011;48509;52.122;5.250;2023-11-19T02:21:05;39.21;;;8.0;;
62457;SDS011;48509;52.122;5.250;2023-11-19T02:24:19;43.2;;;8.4;;
62457;SDS011;48509;52.122;5.250;2023-11-19T02:26:02;40.81;;;7.8;;
62457;SDS011;48509;52.122;5.250;2023-11-19T02:27:44;39.1;;;8.5;;
62457;SDS011;48509;52.122;5.250;2023-11-19T02:29:28;46.3;;;8.71;;
62457;SDS011;48509;52.122;5.250;2023-11-19T02:32:41;42.7;;;8.71;;
62457;SDS011;48509;52.122;5.250;2023-11-19T02:34:18;37.31;;;7.8;;
62457;SDS011;48509;52.122;5.250;2023-11-19T02:35:54;50.1;;;9.0;;
62457;SDS011;48509;52.122;5.250;2023-11-19T02:39:07;42.2;;;8.9;;
62457;SDS011;48509;52.122;5.250;2023-11-19T02:40:44;42.6;;;8.5;;
62457;SDS011;48509;52.122;5.250;2023-11-19T02:42:21;48.4;;;9.0;;
62457;SDS011;48509;52.122;5.250;2023-11-19T02:43:57;48.7;;;9.21;;
62457;SDS011;48509;52.122;5.250;2023-11-19T02:47:10;51.7;;;9.4;;
62457;SDS011;48509;52.122;5.250;2023-11-19T02:48:46;47.0;;;9.1;;
62457;SDS011;48509;52.122;5.250;2023-11-19T02:50:22;47.9;;;9.5;;
62457;SDS011;48509;52.122;5.250;2023-11-19T02:53:37;50.2;;;9.6;;
62457;SDS011;48509;52.122;5.250;2023-11-19T02:55:14;61.5;;;9.6;;
62457;SDS011;48509;52.122;5.250;2023-11-19T02:56:51;50.3;;;9.9;;
62457;SDS011;48509;52.122;5.250;2023-11-19T03:00:05;53.2;;;10.4;;
62457;SDS011;48509;52.122;5.250;2023-11-19T03:01:42;41.2;;;9.6;;
62457;SDS011;48509;52.122;5.250;2023-11-19T03:03:19;56.1;;;10.21;;
62457;SDS011;48509;52.122;5.250;2023-11-19T03:04:55;46.4;;;9.5;;
62457;SDS011;48509;52.122;5.250;2023-11-19T03:08:07;53.4;;;9.81;;
62457;SDS011;48509;52.122;5.250;2023-11-19T03:09:44;49.0;;;9.6;;
62457;SDS011;48509;52.122;5.250;2023-11-19T03:11:20;49.0;;;9.6;;
62457;SDS011;48509;52.122;5.250;2023-11-19T03:14:33;53.2;;;10.0;;
62457;SDS011;48509;52.122;5.250;2023-11-19T03:16:09;43.4;;;9.1;;
62457;SDS011;48509;52.122;5.250;2023-11-19T03:17:45;56.7;;;9.71;;
62457;SDS011;48509;52.122;5.250;2023-11-19T03:20:58;45.8;;;9.71;;
62457;SDS011;48509;52.122;5.250;2023-11-19T03:22:34;53.6;;;9.21;;
62457;SDS011;48509;52.122;5.250;2023-11-19T03:24:13;42.9;;;9.5;;
62457;SDS011;48509;52.122;5.250;2023-11-19T03:25:49;44.2;;;9.4;;
62457;SDS011;48509;52.122;5.250;2023-11-19T03:29:02;57.0;;;9.71;;
62457;SDS011;48509;52.122;5.250;2023-11-19T03:30:38;47.7;;;9.5;;
62457;SDS011;48509;52.122;5.250;2023-11-19T03:32:14;56.5;;;10.3;;
62457;SDS011;48509;52.122;5.250;2023-11-19T03:35:26;72.8;;;10.21;;
62457;SDS011;48509;52.122;5.250;2023-11-19T03:37:02;48.8;;;9.9;;
62457;SDS011;48509;52.122;5.250;2023-11-19T03:38:39;55.5;;;10.3;;
62457;SDS011;48509;52.122;5.250;2023-11-19T03:41:52;48.5;;;9.5;;
62457;SDS011;48509;52.122;5.250;2023-11-19T03:43:28;61.8;;;10.5;;
62457;SDS011;48509;52.122;5.250;2023-11-19T03:45:07;59.6;;;10.3;;
62457;SDS011;48509;52.122;5.250;2023-11-19T03:46:44;50.2;;;9.71;;
62457;SDS011;48509;52.122;5.250;2023-11-19T03:49:56;48.9;;;9.81;;
62457;SDS011;48509;52.122;5.250;2023-11-19T03:51:32;48.1;;;9.31;;
62457;SDS011;48509;52.122;5.250;2023-11-19T03:53:08;50.8;;;10.0;;
62457;SDS011;48509;52.122;5.250;2023-11-19T03:56:21;53.0;;;9.9;;
62457;SDS011;48509;52.122;5.250;2023-11-19T03:57:57;56.4;;;10.1;;
62457;SDS011;48509;52.122;5.250;2023-11-19T03:59:34;51.9;;;9.81;;
62457;SDS011;48509;52.122;5.250;2023-11-19T04:02:48;43.5;;;9.71;;
62457;SDS011;48509;52.122;5.250;2023-11-19T04:04:24;52.6;;;9.6;;
62457;SDS011;48509;52.122;5.250;2023-11-19T04:06:00;57.7;;;10.5;;
62457;SDS011;48509;52.122;5.250;2023-11-19T04:09:15;43.9;;;10.1;;
62457;SDS011;48509;52.122;5.250;2023-11-19T04:10:51;55.6;;;9.5;;
62457;SDS011;48509;52.122;5.250;2023-11-19T04:12:28;53.5;;;10.3;;
62457;SDS011;48509;52.122;5.250;2023-11-19T04:14:04;50.9;;;10.9;;
62457;SDS011;48509;52.122;5.250;2023-11-19T04:17:17;53.7;;;10.4;;
62457;SDS011;48509;52.122;5.250;2023-11-19T04:18:53;49.9;;;10.4;;
62457;SDS011;48509;52.122;5.250;2023-11-19T04:20:30;52.9;;;10.1;;
62457;SDS011;48509;52.122;5.250;2023-11-19T04:23:42;59.5;;;11.3;;
62457;SDS011;48509;52.122;5.250;2023-11-19T04:25:18;54.4;;;10.21;;
62457;SDS011;48509;52.122;5.250;2023-11-19T04:26:54;62.2;;;11.1;;
62457;SDS011;48509;52.122;5.250;2023-11-19T04:30:07;55.7;;;10.5;;
62457;SDS011;48509;52.122;5.250;2023-11-19T04:31:43;55.9;;;10.8;;
62457;SDS011;48509;52.122;5.250;2023-11-19T04:33:20;56.6;;;11.1;;
62457;SDS011;48509;52.122;5.250;2023-11-19T04:34:56;52.4;;;10.1;;
62457;SDS011;48509;52.122;5.250;2023-11-19T04:38:08;50.7;;;10.8;;
62457;SDS011;48509;52.122;5.250;2023-11-19T04:39:44;56.3;;;10.5;;
62457;SDS011;48509;52.122;5.250;2023-11-19T04:41:20;53.3;;;10.5;;
62457;SDS011;48509;52.122;5.250;2023-11-19T04:44:32;49.0;;;10.7;;
62457;SDS011;48509;52.122;5.250;2023-11-19T04:46:09;49.8;;;10.1;;
62457;SDS011;48509;52.122;5.250;2023-11-19T04:47:46;69.61;;;12.3;;
62457;SDS011;48509;52.122;5.250;2023-11-19T04:50:58;54.5;;;10.1;;
62457;SDS011;48509;52.122;5.250;2023-11-19T04:52:34;52.8;;;10.21;;
62457;SDS011;48509;52.122;5.250;2023-11-19T04:54:13;60.9;;;11.1;;
62457;SDS011;48509;52.122;5.250;2023-11-19T04:55:50;56.0;;;10.5;;
62457;SDS011;48509;52.122;5.250;2023-11-19T04:59:02;57.7;;;10.3;;
62457;SDS011;48509;52.122;5.250;2023-11-19T05:00:39;53.4;;;10.3;;
62457;SDS011;48509;52.122;5.250;2023-11-19T05:02:15;50.2;;;9.9;;
62457;SDS011;48509;52.122;5.250;2023-11-19T05:05:28;55.5;;;10.4;;
62457;SDS011;48509;52.122;5.250;2023-11-19T05:08:40;50.1;;;9.71;;
62457;SDS011;48509;52.122;5.250;2023-11-19T05:11:52;49.6;;;10.1;;
62457;SDS011;48509;52.122;5.250;2023-11-19T05:13:28;54.2;;;10.5;;
62457;SDS011;48509;52.122;5.250;2023-11-19T05:15:05;42.8;;;9.1;;
62457;SDS011;48509;52.122;5.250;2023-11-19T05:16:41;47.8;;;10.1;;
62457;SDS011;48509;52.122;5.250;2023-11-19T05:19:54;46.5;;;9.4;;
62457;SDS011;48509;52.122;5.250;2023-11-19T05:21:30;48.3;;;9.5;;
62457;SDS011;48509;52.122;5.250;2023-11-19T05:23:06;50.6;;;10.3;;
62457;SDS011;48509;52.122;5.250;2023-11-19T05:26:18;56.9;;;10.3;;
62457;SDS011;48509;52.122;5.250;2023-11-19T05:27:55;53.2;;;10.5;;
62457;SDS011;48509;52.122;5.250;2023-11-19T05:29:31;59.9;;;11.0;;
62457;SDS011;48509;52.122;5.250;2023-11-19T05:32:43;59.9;;;11.0;;
62457;SDS011;48509;52.122;5.250;2023-11-19T05:34:19;49.0;;;9.21;;
62457;SDS011;48509;52.122;5.250;2023-11-19T05:35:56;51.4;;;9.71;;
62457;SDS011;48509;52.122;5.250;2023-11-19T05:39:08;52.2;;;10.21;;
62457;SDS011;48509;52.122;5.250;2023-11-19T05:40:44;60.0;;;10.4;;
62457;SDS011;48509;52.122;5.250;2023-11-19T05:42:20;49.2;;;9.6;;
62457;SDS011;48509;52.122;5.250;2023-11-19T05:43:56;57.9;;;10.21;;
62457;SDS011;48509;52.122;5.250;2023-11-19T05:47:08;44.8;;;10.3;;
62457;SDS011;48509;52.122;5.250;2023-11-19T05:48:44;47.6;;;9.4;;
62457;SDS011;48509;52.122;5.250;2023-11-19T05:50:20;46.5;;;9.9;;
62457;SDS011;48509;52.122;5.250;2023-11-19T05:53:33;56.1;;;10.21;;
62457;SDS011;48509;52.122;5.250;2023-11-19T05:55:09;53.9;;;9.71;;
62457;SDS011;48509;52.122;5.250;2023-11-19T05:56:47;56.6;;;10.5;;
62457;SDS011;48509;52.122;5.250;2023-11-19T06:00:01;53.1;;;9.81;;
62457;SDS011;48509;52.122;5.250;2023-11-19T06:01:38;46.2;;;10.21;;
62457;SDS011;48509;52.122;5.250;2023-11-19T06:03:14;46.2;;;10.21;;
62457;SDS011;48509;52.122;5.250;2023-11-19T06:04:50;51.3;;;10.0;;
62457;SDS011;48509;52.122;5.250;2023-11-19T06:08:05;48.8;;;10.21;;
62457;SDS011;48509;52.122;5.250;2023-11-19T06:09:41;48.1;;;9.6;;
62457;SDS011;48509;52.122;5.250;2023-11-19T06:11:17;52.6;;;10.6;;
62457;SDS011;48509;52.122;5.250;2023-11-19T06:14:29;57.4;;;10.8;;
62457;SDS011;48509;52.122;5.250;2023-11-19T06:16:06;45.6;;;10.1;;
62457;SDS011;48509;52.122;5.250;2023-11-19T06:17:42;64.5;;;11.2;;
62457;SDS011;48509;52.122;5.250;2023-11-19T06:20:55;50.2;;;10.4;;
62457;SDS011;48509;52.122;5.250;2023-11-19T06:22:31;46.8;;;9.71;;
62457;SDS011;48509;52.122;5.250;2023-11-19T06:24:07;58.7;;;10.8;;
62457;SDS011;48509;52.122;5.250;2023-11-19T06:25:44;49.7;;;10.1;;
62457;SDS011;48509;52.122;5.250;2023-11-19T06:28:56;58.0;;;10.21;;
62457;SDS011;48509;52.122;5.250;2023-11-19T06:30:32;44.0;;;9.9;;
62457;SDS011;48509;52.122;5.250;2023-11-19T06:32:09;43.4;;;10.6;;
62457;SDS011;48509;52.122;5.250;2023-11-19T06:35:22;50.3;;;10.0;;
62457;SDS011;48509;52.122;5.250;2023-11-19T06:36:58;49.0;;;9.71;;
62457;SDS011;48509;52.122;5.250;2023-11-19T06:38:34;64.0;;;10.4;;
62457;SDS011;48509;52.122;5.250;2023-11-19T06:41:47;45.7;;;9.31;;
62457;SDS011;48509;52.122;5.250;2023-11-19T06:43:23;48.8;;;10.1;;
62457;SDS011;48509;52.122;5.250;2023-11-19T06:45:00;58.1;;;9.9;;
62457;SDS011;48509;52.122;5.250;2023-11-19T06:49:50;56.4;;;10.0;;
62457;SDS011;48509;52.122;5.250;2023-11-19T06:51:26;51.6;;;10.1;;
62457;SDS011;48509;52.122;5.250;2023-11-19T06:53:03;48.7;;;9.5;;
62457;SDS011;48509;52.122;5.250;2023-11-19T06:56:18;45.4;;;9.31;;
62457;SDS011;48509;52.122;5.250;2023-11-19T06:57:56;39.0;;;8.71;;
62457;SDS011;48509;52.122;5.250;2023-11-19T06:59:35;54.5;;;9.81;;
62457;SDS011;48509;52.122;5.250;2023-11-19T07:02:49;45.3;;;9.5;;
62457;SDS011;48509;52.122;5.250;2023-11-19T07:04:25;44.2;;;9.6;;
62457;SDS011;48509;52.122;5.250;2023-11-19T07:06:02;56.9;;;10.0;;
62457;SDS011;48509;52.122;5.250;2023-11-19T07:07:39;49.3;;;9.71;;
62457;SDS011;48509;52.122;5.250;2023-11-19T07:10:51;47.9;;;9.5;;
62457;SDS011;48509;52.122;5.250;2023-11-19T07:12:27;45.2;;;9.21;;
62457;SDS011;48509;52.122;5.250;2023-11-19T07:14:04;51.0;;;9.71;;
62457;SDS011;48509;52.122;5.250;2023-11-19T07:17:18;52.3;;;9.5;;
62457;SDS011;48509;52.122;5.250;2023-11-19T07:18:55;59.4;;;10.21;;
62457;SDS011;48509;52.122;5.250;2023-11-19T07:20:32;61.0;;;10.6;;
62457;SDS011;48509;52.122;5.250;2023-11-19T07:23:44;55.7;;;9.81;;
62457;SDS011;48509;52.122;5.250;2023-11-19T07:25:21;52.2;;;10.9;;
62457;SDS011;48509;52.122;5.250;2023-11-19T07:26:57;48.7;;;10.0;;
62457;SDS011;48509;52.122;5.250;2023-11-19T07:28:33;47.4;;;9.5;;
62457;SDS011;48509;52.122;5.250;2023-11-19T07:31:48;50.7;;;10.0;;
62457;SDS011;48509;52.122;5.250;2023-11-19T07:33:24;49.4;;;9.81;;
62457;SDS011;48509;52.122;5.250;2023-11-19T07:35:00;58.3;;;9.9;;
62457;SDS011;48509;52.122;5.250;2023-11-19T07:38:13;56.8;;;10.6;;
62457;SDS011;48509;52.122;5.250;2023-11-19T07:39:49;44.6;;;9.31;;
62457;SDS011;48509;52.122;5.250;2023-11-19T07:41:25;54.2;;;10.6;;
62457;SDS011;48509;52.122;5.250;2023-11-19T07:44:37;56.5;;;10.1;;
62457;SDS011;48509;52.122;5.250;2023-11-19T07:46:13;58.8;;;9.71;;
62457;SDS011;48509;52.122;5.250;2023-11-19T07:47:49;46.0;;;9.31;;
62457;SDS011;48509;52.122;5.250;2023-11-19T07:49:27;44.5;;;9.1;;
62457;SDS011;48509;52.122;5.250;2023-11-19T07:52:39;57.4;;;10.1;;
62457;SDS011;48509;52.122;5.250;2023-11-19T07:54:15;63.2;;;10.3;;
62457;SDS011;48509;52.122;5.250;2023-11-19T07:55:52;42.0;;;9.21;;
62457;SDS011;48509;52.122;5.250;2023-11-19T07:59:04;57.8;;;10.4;;
62457;SDS011;48509;52.122;5.250;2023-11-19T08:00:40;50.4;;;10.7;;
62457;SDS011;48509;52.122;5.250;2023-11-19T08:02:16;45.7;;;9.6;;
62457;SDS011;48509;52.122;5.250;2023-11-19T08:05:30;49.2;;;9.81;;
62457;SDS011;48509;52.122;5.250;2023-11-19T08:07:07;44.0;;;9.81;;
62457;SDS011;48509;52.122;5.250;2023-11-19T08:08:43;56.5;;;10.7;;
62457;SDS011;48509;52.122;5.250;2023-11-19T08:10:20;48.6;;;9.9;;
62457;SDS011;48509;52.122;5.250;2023-11-19T08:13:33;46.0;;;9.21;;
62457;SDS011;48509;52.122;5.250;2023-11-19T08:15:10;57.5;;;10.4;;
62457;SDS011;48509;52.122;5.250;2023-11-19T08:16:47;55.0;;;10.0;;
62457;SDS011;48509;52.122;5.250;2023-11-19T08:19:59;53.0;;;10.21;;
62457;SDS011;48509;52.122;5.250;2023-11-19T08:21:35;58.3;;;10.0;;
62457;SDS011;48509;52.122;5.250;2023-11-19T08:23:11;49.1;;;10.3;;
62457;SDS011;48509;52.122;5.250;2023-11-19T08:26:24;52.0;;;9.1;;
62457;SDS011;48509;52.122;5.250;2023-11-19T08:28:00;50.1;;;9.81;;
62457;SDS011;48509;52.122;5.250;2023-11-19T08:29:36;56.1;;;10.4;;
62457;SDS011;48509;52.122;5.250;2023-11-19T08:31:13;55.6;;;10.6;;
62457;SDS011;48509;52.122;5.250;2023-11-19T08:34:25;56.0;;;10.3;;
62457;SDS011;48509;52.122;5.250;2023-11-19T08:36:03;49.6;;;9.9;;
62457;SDS011;48509;52.122;5.250;2023-11-19T08:37:39;77.8;;;10.6;;
62457;SDS011;48509;52.122;5.250;2023-11-19T08:40:51;49.2;;;10.1;;
62457;SDS011;48509;52.122;5.250;2023-11-19T08:42:27;55.6;;;10.3;;
62457;SDS011;48509;52.122;5.250;2023-11-19T08:44:04;53.7;;;10.1;;
62457;SDS011;48509;52.122;5.250;2023-11-19T08:47:16;53.6;;;9.6;;
62457;SDS011;48509;52.122;5.250;2023-11-19T08:48:53;67.8;;;10.7;;
62457;SDS011;48509;52.122;5.250;2023-11-19T08:50:30;49.6;;;10.21;;
62457;SDS011;48509;52.122;5.250;2023-11-19T08:52:08;60.5;;;10.4;;
62457;SDS011;48509;52.122;5.250;2023-11-19T08:55:21;51.6;;;9.9;;
62457;SDS011;48509;52.122;5.250;2023-11-19T08:56:57;52.3;;;9.9;;
62457;SDS011;48509;52.122;5.250;2023-11-19T08:58:33;50.8;;;9.71;;
62457;SDS011;48509;52.122;5.250;2023-11-19T09:01:48;56.6;;;9.4;;
62457;SDS011;48509;52.122;5.250;2023-11-19T09:03:25;53.0;;;10.1;;
62457;SDS011;48509;52.122;5.250;2023-11-19T09:05:01;56.4;;;10.21;;
62457;SDS011;48509;52.122;5.250;2023-11-19T09:08:15;52.4;;;10.1;;
62457;SDS011;48509;52.122;5.250;2023-11-19T09:09:52;54.4;;;10.1;;
62457;SDS011;48509;52.122;5.250;2023-11-19T09:11:28;48.1;;;9.4;;
62457;SDS011;48509;52.122;5.250;2023-11-19T09:13:05;54.9;;;10.1;;
62457;SDS011;48509;52.122;5.250;2023-11-19T09:16:17;54.8;;;9.4;;
62457;SDS011;48509;52.122;5.250;2023-11-19T09:17:54;57.5;;;10.3;;
62457;SDS011;48509;52.122;5.250;2023-11-19T09:19:32;45.9;;;9.21;;
62457;SDS011;48509;52.122;5.250;2023-11-19T09:22:46;54.7;;;10.0;;
62457;SDS011;48509;52.122;5.250;2023-11-19T09:24:22;47.1;;;9.6;;
62457;SDS011;48509;52.122;5.250;2023-11-19T09:25:58;53.2;;;9.4;;
62457;SDS011;48509;52.122;5.250;2023-11-19T09:29:11;53.1;;;9.71;;
62457;SDS011;48509;52.122;5.250;2023-11-19T09:30:49;41.9;;;9.31;;
62457;SDS011;48509;52.122;5.250;2023-11-19T09:32:26;46.8;;;9.21;;
62457;SDS011;48509;52.122;5.250;2023-11-19T09:34:03;48.2;;;10.1;;
62457;SDS011;48509;52.122;5.250;2023-11-19T09:37:15;43.9;;;9.0;;
62457;SDS011;48509;52.122;5.250;2023-11-19T09:38:51;42.8;;;8.71;;
62457;SDS011;48509;52.122;5.250;2023-11-19T09:40:27;53.8;;;10.21;;
62457;SDS011;48509;52.122;5.250;2023-11-19T09:43:41;52.3;;;10.6;;
62457;SDS011;48509;52.122;5.250;2023-11-19T09:45:18;57.4;;;9.6;;
62457;SDS011;48509;52.122;5.250;2023-11-19T09:46:57;39.81;;;8.5;;
62457;SDS011;48509;52.122;5.250;2023-11-19T09:50:14;50.7;;;9.4;;
62457;SDS011;48509;52.122;5.250;2023-11-19T09:51:52;48.5;;;9.31;;
62457;SDS011;48509;52.122;5.250;2023-11-19T09:53:30;48.4;;;9.31;;
62457;SDS011;48509;52.122;5.250;2023-11-19T09:55:08;47.3;;;9.1;;
62457;SDS011;48509;52.122;5.250;2023-11-19T09:58:22;48.9;;;10.4;;
62457;SDS011;48509;52.122;5.250;2023-11-19T09:59:58;44.9;;;8.4;;
62457;SDS011;48509;52.122;5.250;2023-11-19T10:01:35;48.2;;;9.31;;
62457;SDS011;48509;52.122;5.250;2023-11-19T10:04:49;48.2;;;9.31;;
62457;SDS011;48509;52.122;5.250;2023-11-19T10:06:27;38.4;;;8.71;;
62457;SDS011;48509;52.122;5.250;2023-11-19T10:08:05;39.9;;;9.21;;
62457;SDS011;48509;52.122;5.250;2023-11-19T10:09:42;52.3;;;9.5;;
62457;SDS011;48509;52.122;5.250;2023-11-19T10:12:54;46.9;;;9.81;;
62457;SDS011;48509;52.122;5.250;2023-11-19T10:14:30;40.1;;;8.71;;
62457;SDS011;48509;52.122;5.250;2023-11-19T10:16:09;42.2;;;8.81;;
62457;SDS011;48509;52.122;5.250;2023-11-19T10:19:24;42.2;;;8.81;;
62457;SDS011;48509;52.122;5.250;2023-11-19T10:21:00;38.81;;;9.0;;
62457;SDS011;48509;52.122;5.250;2023-11-19T10:22:36;50.7;;;8.71;;
62457;SDS011;48509;52.122;5.250;2023-11-19T10:24:13;48.5;;;8.81;;
62457;SDS011;48509;52.122;5.250;2023-11-19T10:27:29;47.3;;;9.1;;
62457;SDS011;48509;52.122;5.250;2023-11-19T10:29:06;43.1;;;8.81;;
62457;SDS011;48509;52.122;5.250;2023-11-19T10:30:42;53.2;;;9.81;;
62457;SDS011;48509;52.122;5.250;2023-11-19T10:33:54;42.0;;;8.9;;
62457;SDS011;48509;52.122;5.250;2023-11-19T10:35:32;42.9;;;8.4;;
62457;SDS011;48509;52.122;5.250;2023-11-19T10:37:09;43.4;;;9.31;;
62457;SDS011;48509;52.122;5.250;2023-11-19T10:39:03;46.4;;;9.5;;
62457;SDS011;48509;52.122;5.250;2023-11-19T10:42:16;41.0;;;8.81;;
62457;SDS011;48509;52.122;5.250;2023-11-19T10:43:52;41.0;;;9.21;;
62457;SDS011;48509;52.122;5.250;2023-11-19T10:45:28;51.6;;;8.6;;
62457;SDS011;48509;52.122;5.250;2023-11-19T10:48:43;45.3;;;8.9;;
62457;SDS011;48509;52.122;5.250;2023-11-19T10:50:19;46.2;;;8.5;;
62457;SDS011;48509;52.122;5.250;2023-11-19T10:51:56;38.71;;;8.2;;
62457;SDS011;48509;52.122;5.250;2023-11-19T10:53:35;40.21;;;9.21;;
62457;SDS011;48509;52.122;5.250;2023-11-19T10:56:54;48.0;;;8.81;;
62457;SDS011;48509;52.122;5.250;2023-11-19T10:58:35;46.2;;;8.71;;
62457;SDS011;48509;52.122;5.250;2023-11-19T11:00:12;43.7;;;8.71;;
62457;SDS011;48509;52.122;5.250;2023-11-19T11:01:54;40.5;;;8.31;;
62457;SDS011;48509;52.122;5.250;2023-11-19T11:05:16;45.1;;;8.81;;
62457;SDS011;48509;52.122;5.250;2023-11-19T11:06:54;43.1;;;8.6;;
62457;SDS011;48509;52.122;5.250;2023-11-19T11:08:31;39.1;;;9.1;;
62457;SDS011;48509;52.122;5.250;2023-11-19T11:10:12;40.31;;;8.9;;
62457;SDS011;48509;52.122;5.250;2023-11-19T11:13:26;39.21;;;8.71;;
62457;SDS011;48509;52.122;5.250;2023-11-19T11:15:03;49.9;;;8.0;;
62457;SDS011;48509;52.122;5.250;2023-11-19T11:16:42;38.5;;;9.0;;
62457;SDS011;48509;52.122;5.250;2023-11-19T11:19:56;37.5;;;8.2;;
62457;SDS011;48509;52.122;5.250;2023-11-19T11:21:33;36.9;;;8.2;;
62457;SDS011;48509;52.122;5.250;2023-11-19T11:23:33;39.9;;;8.81;;
62457;SDS011;48509;52.122;5.250;2023-11-19T11:25:27;36.6;;;8.0;;
62457;SDS011;48509;52.122;5.250;2023-11-19T11:27:21;46.0;;;8.81;;
62457;SDS011;48509;52.122;5.250;2023-11-19T11:29:20;32.8;;;7.9;;
62457;SDS011;48509;52.122;5.250;2023-11-19T11:33:00;48.9;;;8.81;;
62457;SDS011;48509;52.122;5.250;2023-11-19T11:34:53;35.4;;;7.7;;
62457;SDS011;48509;52.122;5.250;2023-11-19T11:36:45;39.71;;;8.0;;
62457;SDS011;48509;52.122;5.250;2023-11-19T11:38:42;32.8;;;7.0;;
62457;SDS011;48509;52.122;5.250;2023-11-19T11:40:19;34.31;;;7.2;;
62457;SDS011;48509;52.122;5.250;2023-11-19T11:42:30;37.4;;;8.6;;
62457;SDS011;48509;52.122;5.250;2023-11-19T11:44:10;36.71;;;8.31;;
62457;SDS011;48509;52.122;5.250;2023-11-19T11:45:46;35.0;;;7.7;;
62457;SDS011;48509;52.122;5.250;2023-11-19T11:50:49;39.71;;;8.4;;
62457;SDS011;48509;52.122;5.250;2023-11-19T11:52:28;32.4;;;8.1;;
62457;SDS011;48509;52.122;5.250;2023-11-19T11:55:55;34.1;;;8.5;;
62457;SDS011;48509;52.122;5.250;2023-11-19T11:57:40;34.0;;;8.5;;
62457;SDS011;48509;52.122;5.250;2023-11-19T12:00:56;36.81;;;8.2;;
62457;SDS011;48509;52.122;5.250;2023-11-19T12:02:33;31.9;;;7.7;;
62457;SDS011;48509;52.122;5.250;2023-11-19T12:05:46;39.4;;;7.8;;
62457;SDS011;48509;52.122;5.250;2023-11-19T12:07:24;36.21;;;7.7;;
62457;SDS011;48509;52.122;5.250;2023-11-19T12:09:01;28.3;;;7.0;;
62457;SDS011;48509;52.122;5.250;2023-11-19T12:12:21;28.3;;;7.0;;
62457;SDS011;48509;52.122;5.250;2023-11-19T12:14:02;35.9;;;7.8;;
62457;SDS011;48509;52.122;5.250;2023-11-19T12:15:54;32.21;;;7.9;;
62457;SDS011;48509;52.122;5.250;2023-11-19T12:17:46;44.7;;;8.5;;
62457;SDS011;48509;52.122;5.250;2023-11-19T12:19:24;31.0;;;7.3;;
62457;SDS011;48509;52.122;5.250;2023-11-19T12:22:39;34.71;;;7.2;;
62457;SDS011;48509;52.122;5.250;2023-11-19T12:24:17;45.5;;;7.8;;
62457;SDS011;48509;52.122;5.250;2023-11-19T12:25:55;45.5;;;7.8;;
62457;SDS011;48509;52.122;5.250;2023-11-19T12:29:08;27.9;;;7.2;;
62457;SDS011;48509;52.122;5.250;2023-11-19T12:30:44;37.5;;;7.8;;
62457;SDS011;48509;52.122;5.250;2023-11-19T12:32:21;26.3;;;6.5;;
62457;SDS011;48509;52.122;5.250;2023-11-19T12:33:57;29.1;;;6.9;;
62457;SDS011;48509;52.122;5.250;2023-11-19T12:37:15;31.7;;;7.3;;
62457;SDS011;48509;52.122;5.250;2023-11-19T12:38:53;33.0;;;7.6;;
62457;SDS011;48509;52.122;5.250;2023-11-19T12:40:30;27.4;;;6.7;;
62457;SDS011;48509;52.122;5.250;2023-11-19T12:43:42;31.3;;;7.1;;
62457;SDS011;48509;52.122;5.250;2023-11-19T12:45:19;32.1;;;7.1;;
62457;SDS011;48509;52.122;5.250;2023-11-19T12:46:59;39.1;;;7.1;;
62457;SDS011;48509;52.122;5.250;2023-11-19T12:48:36;28.7;;;6.6;;
62457;SDS011;48509;52.122;5.250;2023-11-19T12:51:50;32.0;;;6.7;;